Findlay, Illinois
Current Conditions -  °F | °C
As of 10:06 PM on Thursday 18 Dec 2014 (Local Time) from KDEC Reporting Station
Scattered Clouds Scattered Clouds  
Wind Chill: 26°   Ceiling: Unl
Heat Index: 26°   Visibility: 7mi
Dew Point: 22°   Wind: 3mph
Humidity: 84%   Direction: 350°N
Pressure: 30.29"   Gusts: NA
Location:  39.52°N, 88.75°W
Report Text: KDEC 190406Z AUTO 35003KT 7SM SCT015 M03/M06 A3029 RMK AO2 T10331056 TSNO
Loading
Personal Weather Stations






























Interactive Weather Map New forecast layout! Learn more

10-Day Weather Forecast

Advertisements
Track Severe Weather on mobile